Tyndall Air Force Base Panama City US
ICAO: KPAM
IATA: PAM
Category: Large
Scheduled Services: No

Elevation: 17 ft
TransAlt. 18000 ft.

Airport Communications:
APP/DEP:119.1
ATIS:25.44
CLNC DEL:118.05
GND:121.9
PMSV METRO:29.062
COMD POST:38.13
PTD:139.9
TWR:133.95

KPAM Zoom In..

If Map Doesn't Load, Click Here

Runways:

(A) RW 13L length 10004 ft width 200 ft
ILS 111.50 / hdg 135

(B) RW 13R length 9135 ft width 150 ft
---- / hdg 135

(C) RW 31L length 9135 ft width 150 ft
---- / hdg 315

(D) RW 31R length 10004 ft width 200 ft
ILS 110.10 / hdg 315

Location; KPAM
Day. 21 / Time. 12.56 Zulu
* Altimeter: 30.09
* Temperature: 26° c. 78.8°f.
* Wind from: 060° Speed 07 kn.
Dewpoint: 23° c.
Visibility: 10 Statute Miles.
Clouds: Few 6000 ft.
Clouds: Few 16000 ft.

KPAM 211256Z AUTO 06007KT 10SM FEW060 FEW160 26/23 A3009 RMK AO2 SLP192 T02630233 $


Wind From 060°
Speed 07 kn.

 
 
jpsmedia.com for Web Design worldairports.se 2018   terms of use